Time;durP1;ratioP1;P1;durP2;ratioP2;P2;SDS_P1;SDS_P2;PMS_P1;PMS_P2;Temp;Humidity;BMP_temperature;BMP_pressure;BME280_temperature;BME280_humidity;BME280_pressure;Samples;Min_cycle;Max_cycle;Signal;HPM_P1;HPM_P2
2023/10/24 00:00:30;;;;;;;9.65;7.38;;;;;;;16.10;66.57;96243.34;4907283;28;20026;-79
2023/10/24 00:02:55;;;;;;;9.80;7.40;;;;;;;16.27;66.50;96255.00;4944207;28;20033;-78
2023/10/24 00:05:21;;;;;;;7.82;6.68;;;;;;;16.33;66.19;96256.44;4937524;28;20828;-79
2023/10/24 00:07:46;;;;;;;8.35;6.50;;;;;;;16.28;66.36;96256.56;4912087;28;20775;-80
2023/10/24 00:10:13;;;;;;;10.60;6.93;;;;;;;16.36;66.36;96247.91;4936457;28;20055;-80
2023/10/24 00:12:38;;;;;;;11.10;7.10;;;;;;;16.32;66.36;96247.00;4920903;28;20739;-80
2023/10/24 00:15:04;;;;;;;8.73;6.95;;;;;;;16.24;66.77;96237.22;4920065;28;20117;-80
2023/10/24 00:17:30;;;;;;;10.30;7.07;;;;;;;16.35;66.18;96240.34;4916647;28;20042;-80
2023/10/24 00:19:55;;;;;;;11.65;8.52;;;;;;;16.34;66.64;96236.19;4904873;28;20026;-80
2023/10/24 00:22:21;;;;;;;10.00;8.48;;;;;;;16.29;67.07;96243.09;4908760;28;20025;-79
2023/10/24 00:24:46;;;;;;;11.85;8.15;;;;;;;16.42;66.23;96238.84;4939786;28;20030;-80
2023/10/24 00:27:12;;;;;;;10.05;7.38;;;;;;;16.37;67.08;96248.72;4940984;28;20054;-79
2023/10/24 00:29:37;;;;;;;9.93;7.38;;;;;;;16.40;66.52;96242.84;4935068;28;20957;-79
2023/10/24 00:32:03;;;;;;;10.30;7.35;;;;;;;16.46;66.63;96241.63;4909150;28;20026;-80
2023/10/24 00:34:28;;;;;;;13.10;8.57;;;;;;;16.35;66.70;96225.38;4922819;28;20045;-80
2023/10/24 00:36:53;;;;;;;9.20;7.60;;;;;;;16.26;66.92;96229.81;4931223;28;20038;-79
2023/10/24 00:39:19;;;;;;;12.05;8.27;;;;;;;16.41;66.67;96224.13;4892195;28;20034;-79
2023/10/24 00:41:44;;;;;;;12.70;7.95;;;;;;;16.46;66.71;96215.34;4909243;28;20677;-80
2023/10/24 00:44:10;;;;;;;11.45;7.90;;;;;;;16.45;66.87;96213.78;4900943;28;20021;-79
2023/10/24 00:46:37;;;;;;;9.25;7.40;;;;;;;16.48;66.69;96215.81;4900888;28;20030;-80
2023/10/24 00:49:03;;;;;;;10.82;7.70;;;;;;;16.57;66.05;96221.09;4932205;28;20025;-80
2023/10/24 00:51:28;;;;;;;12.25;7.90;;;;;;;16.45;66.88;96221.66;4924093;28;20026;-79
2023/10/24 00:53:55;;;;;;;10.32;7.75;;;;;;;16.56;67.00;96225.56;4930893;28;20034;-79
2023/10/24 00:56:21;;;;;;;8.82;7.03;;;;;;;16.55;67.02;96242.41;4933037;28;20376;-79
2023/10/24 00:58:48;;;;;;;12.05;7.63;;;;;;;16.36;67.29;96226.13;4935167;28;20040;-79
2023/10/24 01:01:13;;;;;;;9.32;7.50;;;;;;;16.45;67.09;96214.59;4925387;28;20030;-78
2023/10/24 01:03:39;;;;;;;9.38;6.95;;;;;;;16.47;66.99;96201.91;4914902;28;20037;-79
2023/10/24 01:06:08;;;;;;;9.75;6.75;;;;;;;16.41;67.27;96212.88;4918793;28;20803;-79
2023/10/24 01:08:34;;;;;;;9.30;7.22;;;;;;;16.46;67.29;96212.72;4915698;28;20037;-78
2023/10/24 01:10:59;;;;;;;10.93;6.32;;;;;;;16.58;66.91;96209.50;4900537;28;20038;-79
2023/10/24 01:13:25;;;;;;;9.00;6.18;;;;;;;16.64;66.92;96209.06;4916616;28;20171;-79
2023/10/24 01:15:50;;;;;;;7.97;5.95;;;;;;;16.57;67.21;96203.47;4920507;28;20737;-78
2023/10/24 01:18:15;;;;;;;6.93;6.18;;;;;;;16.56;66.79;96201.94;4916389;28;20088;-79
2023/10/24 01:20:41;;;;;;;8.50;5.50;;;;;;;16.62;67.06;96200.72;4943650;28;20045;-79
2023/10/24 01:23:08;;;;;;;8.18;5.63;;;;;;;16.70;66.91;96203.66;4931656;28;20025;-79
2023/10/24 01:25:35;;;;;;;6.20;5.18;;;;;;;16.77;66.73;96190.81;4920035;28;20033;-78
2023/10/24 01:28:01;;;;;;;8.60;5.40;;;;;;;16.62;67.46;96190.19;4916096;28;20034;-79
2023/10/24 01:30:26;;;;;;;8.05;5.88;;;;;;;16.59;66.76;96190.81;4907605;28;20030;-79
2023/10/24 01:32:52;;;;;;;9.25;6.10;;;;;;;16.72;66.49;96186.47;4893574;28;20902;-79
2023/10/24 01:35:17;;;;;;;6.38;4.75;;;;;;;16.55;66.66;96181.97;4920433;28;20865;-79
2023/10/24 01:37:45;;;;;;;7.03;5.10;;;;;;;16.60;66.81;96178.44;4920349;28;20494;-79
2023/10/24 01:40:11;;;;;;;6.22;4.55;;;;;;;16.66;66.90;96182.47;4914146;28;20030;-80
2023/10/24 01:42:39;;;;;;;5.78;4.38;;;;;;;16.59;66.63;96175.03;4899604;28;20183;-80
2023/10/24 01:45:05;;;;;;;6.40;4.40;;;;;;;16.61;66.89;96170.25;4903507;28;20219;-79
2023/10/24 01:47:31;;;;;;;5.95;4.97;;;;;;;16.62;66.32;96158.66;4901000;28;20755;-80
2023/10/24 01:49:56;;;;;;;8.80;5.30;;;;;;;16.56;66.95;96141.47;4914598;28;20026;-79
2023/10/24 01:52:22;;;;;;;6.88;5.15;;;;;;;16.67;66.89;96153.25;4935674;28;20034;-79
2023/10/24 01:54:47;;;;;;;5.80;4.68;;;;;;;16.67;65.93;96158.50;4918859;28;20219;-80
2023/10/24 01:57:14;;;;;;;6.88;4.68;;;;;;;16.67;66.65;96182.16;4903834;28;20042;-80
2023/10/24 01:59:39;;;;;;;5.82;3.80;;;;;;;16.66;66.90;96174.59;4924046;28;20038;-79
2023/10/24 02:02:05;;;;;;;5.75;4.32;;;;;;;16.65;66.75;96181.69;4937735;28;20844;-79
2023/10/24 02:04:30;;;;;;;6.78;5.35;;;;;;;16.52;67.18;96181.81;4923490;28;20057;-78
2023/10/24 02:06:56;;;;;;;6.30;4.65;;;;;;;16.57;66.95;96187.72;4925269;28;20030;-79
2023/10/24 02:09:21;;;;;;;5.35;4.25;;;;;;;16.64;66.79;96187.25;4930453;28;20341;-79
2023/10/24 02:11:46;;;;;;;5.43;4.63;;;;;;;16.59;66.76;96185.53;4933583;28;20109;-79
2023/10/24 02:14:12;;;;;;;5.63;4.43;;;;;;;16.66;66.48;96193.75;4920586;28;20037;-79
2023/10/24 02:16:37;;;;;;;7.82;4.53;;;;;;;16.62;66.37;96195.44;4907238;28;20115;-79
2023/10/24 02:19:02;;;;;;;6.50;4.15;;;;;;;16.57;66.59;96200.06;4923042;28;20884;-79
2023/10/24 02:21:28;;;;;;;7.50;4.25;;;;;;;16.63;66.54;96196.97;4923833;28;20021;-79
2023/10/24 02:23:53;;;;;;;7.88;4.07;;;;;;;16.63;66.64;96201.47;4915449;28;20113;-79
2023/10/24 02:26:19;;;;;;;7.78;4.70;;;;;;;16.58;66.43;96205.00;4907230;28;20096;-79
2023/10/24 02:28:44;;;;;;;5.95;4.60;;;;;;;16.61;66.76;96211.53;4940766;28;20038;-80
2023/10/24 02:31:10;;;;;;;5.15;4.65;;;;;;;16.60;66.75;96208.09;4919965;28;20113;-80
2023/10/24 02:33:36;;;;;;;6.25;4.25;;;;;;;16.55;66.59;96207.47;4896114;28;20723;-81
2023/10/24 02:36:11;;;;;;;7.80;4.85;;;;;;;16.59;67.18;96213.69;4921195;28;20115;-80
2023/10/24 02:38:37;;;;;;;5.38;4.82;;;;;;;16.54;66.64;96217.22;4906146;28;20049;-80
2023/10/24 02:41:03;;;;;;;5.55;4.47;;;;;;;16.54;66.72;96209.34;4929897;28;20667;-80
2023/10/24 02:43:29;;;;;;;6.10;4.45;;;;;;;16.53;67.09;96199.91;4903749;28;20030;-80
2023/10/24 02:45:55;;;;;;;8.90;5.20;;;;;;;16.51;66.56;96207.31;4908065;28;20593;-80
2023/10/24 02:48:20;;;;;;;4.72;3.70;;;;;;;16.57;66.44;96200.84;4910751;28;21885;-80
2023/10/24 02:50:54;;;;;;;6.40;4.85;;;;;;;16.54;66.82;96190.19;4923334;28;20068;-80
2023/10/24 02:53:20;;;;;;;5.80;4.25;;;;;;;16.54;66.89;96196.22;4917827;28;20022;-80
2023/10/24 02:55:45;;;;;;;6.78;4.85;;;;;;;16.46;66.52;96187.22;4922651;28;20036;-80
2023/10/24 02:58:11;;;;;;;8.18;4.93;;;;;;;16.52;66.72;96190.50;4913925;28;20065;-79
2023/10/24 03:00:36;;;;;;;4.97;4.28;;;;;;;16.53;66.22;96194.66;4922395;28;20048;-80
2023/10/24 03:03:02;;;;;;;6.05;4.13;;;;;;;16.55;66.70;96200.38;4934741;28;20824;-79
2023/10/24 03:05:28;;;;;;;10.23;5.20;;;;;;;16.50;66.52;96195.25;4938664;28;20713;-79
2023/10/24 03:07:53;;;;;;;5.82;4.65;;;;;;;16.54;66.45;96206.72;4921613;28;20034;-79
2023/10/24 03:10:19;;;;;;;6.15;5.20;;;;;;;16.51;66.22;96212.56;4920116;28;20030;-79
2023/10/24 03:12:44;;;;;;;6.88;4.50;;;;;;;16.50;66.59;96205.75;4902840;28;20126;-79
2023/10/24 03:15:10;;;;;;;5.38;4.75;;;;;;;16.53;66.82;96202.53;4907782;28;20842;-79
2023/10/24 03:17:35;;;;;;;5.38;4.88;;;;;;;16.48;66.02;96202.69;4921645;28;20033;-79
2023/10/24 03:20:00;;;;;;;7.53;4.47;;;;;;;16.42;66.41;96206.53;4920713;28;20038;-79
2023/10/24 03:22:26;;;;;;;6.30;4.40;;;;;;;16.46;66.45;96215.34;4932155;28;20752;-79
2023/10/24 03:24:51;;;;;;;8.63;5.07;;;;;;;16.42;66.56;96201.28;4912827;28;20026;-80
2023/10/24 03:27:17;;;;;;;5.20;4.60;;;;;;;16.43;66.29;96200.19;4921513;28;20090;-79
2023/10/24 03:29:43;;;;;;;6.70;4.53;;;;;;;16.47;65.99;96204.53;4929740;28;20135;-79
2023/10/24 03:32:11;;;;;;;6.60;4.90;;;;;;;16.53;66.21;96205.16;4935726;28;20690;-79
2023/10/24 03:34:37;;;;;;;7.35;4.63;;;;;;;16.55;65.80;96203.00;4920021;28;20046;-80
2023/10/24 03:37:02;;;;;;;7.40;4.60;;;;;;;16.53;66.10;96193.88;4920559;28;20131;-79
2023/10/24 03:39:28;;;;;;;5.63;4.80;;;;;;;16.56;66.12;96207.19;4928849;28;20041;-81
2023/10/24 03:41:54;;;;;;;6.05;4.25;;;;;;;16.54;66.20;96206.72;4898378;28;20779;-80
2023/10/24 03:44:20;;;;;;;6.20;4.57;;;;;;;16.49;66.30;96204.22;4904728;28;20185;-80
2023/10/24 03:46:45;;;;;;;5.47;4.80;;;;;;;16.45;66.19;96204.06;4915409;28;20809;-80
2023/10/24 03:49:11;;;;;;;6.93;4.57;;;;;;;16.43;66.18;96205.44;4927753;28;20034;-80
2023/10/24 03:51:36;;;;;;;4.78;4.05;;;;;;;16.48;65.95;96198.22;4920212;28;20032;-80
2023/10/24 03:54:03;;;;;;;5.68;4.60;;;;;;;16.47;65.98;96191.41;4928244;28;20038;-80
2023/10/24 03:56:29;;;;;;;5.63;4.40;;;;;;;16.44;65.87;96192.00;4920645;28;20041;-80
2023/10/24 03:58:55;;;;;;;6.22;4.20;;;;;;;16.46;65.86;96192.47;4937282;28;20050;-80
2023/10/24 04:01:20;;;;;;;4.43;4.03;;;;;;;16.47;65.83;96201.16;4900916;28;20696;-80
2023/10/24 04:03:46;;;;;;;6.03;4.63;;;;;;;16.47;65.90;96201.16;4926170;28;20050;-80
2023/10/24 04:06:11;;;;;;;4.20;3.80;;;;;;;16.45;66.02;96211.16;4902527;28;20026;-80
2023/10/24 04:08:37;;;;;;;5.43;4.03;;;;;;;16.45;65.53;96208.53;4900609;28;20122;-80
2023/10/24 04:11:03;;;;;;;5.30;3.90;;;;;;;16.40;66.02;96203.41;4916664;28;20029;-80
2023/10/24 04:13:29;;;;;;;4.82;3.63;;;;;;;16.33;65.63;96206.53;4920702;28;20057;-80
2023/10/24 04:15:58;;;;;;;5.45;4.40;;;;;;;16.38;65.80;96197.69;4935643;28;20900;-80
2023/10/24 04:18:25;;;;;;;3.40;3.10;;;;;;;16.42;65.87;96206.53;4935161;28;20716;-80
2023/10/24 04:20:51;;;;;;;4.03;3.63;;;;;;;16.37;65.86;96201.44;4896709;28;20045;-80
2023/10/24 04:23:16;;;;;;;4.25;3.13;;;;;;;16.38;66.21;96201.13;4902465;28;20029;-80
2023/10/24 04:25:42;;;;;;;5.18;3.58;;;;;;;16.42;65.56;96194.16;4919349;28;20156;-80
2023/10/24 04:28:07;;;;;;;3.30;2.95;;;;;;;16.44;66.00;96186.75;4920739;28;20109;-81
2023/10/24 04:30:32;;;;;;;4.82;3.15;;;;;;;16.36;65.82;96184.09;4913636;28;20712;-80
2023/10/24 04:32:58;;;;;;;2.88;2.67;;;;;;;16.32;66.10;96178.69;4920165;28;20044;-80
2023/10/24 04:35:23;;;;;;;3.28;2.97;;;;;;;16.34;65.80;96183.66;4920263;28;20820;-80
2023/10/24 04:37:49;;;;;;;3.17;2.88;;;;;;;16.38;66.12;96179.31;4904763;28;20029;-80
2023/10/24 04:40:14;;;;;;;3.15;2.88;;;;;;;16.36;66.20;96168.34;4906383;28;20065;-81
2023/10/24 04:42:39;;;;;;;4.00;3.08;;;;;;;16.32;65.96;96162.94;4917181;28;20910;-81
2023/10/24 04:45:06;;;;;;;2.92;2.63;;;;;;;16.35;65.81;96159.69;4937069;28;20025;-80
2023/10/24 04:47:31;;;;;;;3.70;3.05;;;;;;;16.31;66.25;96156.13;4902009;28;20100;-80
2023/10/24 04:49:56;;;;;;;3.15;2.85;;;;;;;16.29;65.95;96156.41;4906931;28;20030;-80
2023/10/24 04:52:22;;;;;;;2.88;2.53;;;;;;;16.29;65.58;96158.28;4903845;28;20733;-79
2023/10/24 04:54:50;;;;;;;3.03;2.67;;;;;;;16.28;66.09;96156.75;4936543;28;20037;-80
2023/10/24 04:57:15;;;;;;;2.90;2.60;;;;;;;16.26;65.74;96156.25;4924658;28;20038;-79
2023/10/24 04:59:41;;;;;;;4.70;2.90;;;;;;;16.20;65.63;96142.50;4936986;28;20796;-80
2023/10/24 05:02:07;;;;;;;3.20;2.40;;;;;;;16.27;66.02;96155.97;4916956;28;20711;-79
2023/10/24 05:04:32;;;;;;;3.97;2.80;;;;;;;16.27;65.63;96147.31;4915776;28;20034;-79
2023/10/24 05:06:58;;;;;;;3.53;2.47;;;;;;;16.27;65.50;96134.94;4910121;28;20168;-79
2023/10/24 05:09:24;;;;;;;3.13;2.60;;;;;;;16.25;65.87;96131.84;4919740;28;20789;-80
2023/10/24 05:11:51;;;;;;;3.90;2.67;;;;;;;16.27;66.10;96136.81;4904132;28;20705;-79
2023/10/24 05:14:17;;;;;;;3.40;3.10;;;;;;;16.23;66.06;96126.13;4934465;28;20230;-80
2023/10/24 05:16:42;;;;;;;3.03;2.60;;;;;;;16.25;66.05;96121.34;4930851;28;20890;-80
2023/10/24 05:19:07;;;;;;;3.40;2.50;;;;;;;16.24;65.78;96109.28;4903611;28;20057;-80
2023/10/24 05:21:33;;;;;;;2.67;2.45;;;;;;;16.24;65.99;96111.91;4908015;28;20701;-79
2023/10/24 05:23:59;;;;;;;3.25;2.70;;;;;;;16.25;65.76;96116.09;4934579;28;21060;-79
2023/10/24 05:26:24;;;;;;;2.97;2.65;;;;;;;16.27;65.79;96123.69;4898156;28;20037;-80
2023/10/24 05:28:50;;;;;;;3.28;2.45;;;;;;;16.29;66.09;96127.53;4884073;28;20104;-80
2023/10/24 05:31:15;;;;;;;3.50;2.97;;;;;;;16.25;65.73;96137.13;4914241;28;20190;-80
2023/10/24 05:33:41;;;;;;;3.28;2.47;;;;;;;16.26;66.08;96143.91;4908935;28;20282;-80
2023/10/24 05:36:06;;;;;;;4.97;3.17;;;;;;;16.25;65.85;96147.63;4891065;28;20175;-80
2023/10/24 05:38:35;;;;;;;3.58;3.28;;;;;;;16.27;66.06;96155.97;4889547;28;20199;-80
2023/10/24 05:41:00;;;;;;;2.85;2.47;;;;;;;16.31;65.96;96166.63;4904197;28;20136;-80
2023/10/24 05:43:26;;;;;;;2.92;2.60;;;;;;;16.28;66.07;96168.03;4924633;28;20179;-80
2023/10/24 05:45:52;;;;;;;5.28;3.20;;;;;;;16.31;65.90;96166.63;4908158;28;20382;-80
2023/10/24 05:48:17;;;;;;;3.22;2.45;;;;;;;16.34;66.31;96170.50;4924921;28;20088;-80
2023/10/24 05:50:44;;;;;;;3.05;2.53;;;;;;;16.33;65.57;96158.44;4908661;28;20204;-80
2023/10/24 05:53:09;;;;;;;3.55;2.92;;;;;;;16.29;65.92;96151.16;4920321;28;20293;-80
2023/10/24 05:55:34;;;;;;;3.63;2.50;;;;;;;16.30;65.66;96149.34;4894492;28;20338;-80
2023/10/24 05:58:00;;;;;;;3.72;2.65;;;;;;;16.27;65.69;96155.97;4906581;28;20269;-80
2023/10/24 06:00:25;;;;;;;3.20;2.90;;;;;;;16.31;65.90;96166.63;4903604;28;20190;-80
2023/10/24 06:02:51;;;;;;;3.80;3.20;;;;;;;16.38;65.71;96161.72;4923936;28;20173;-80
2023/10/24 06:05:16;;;;;;;4.05;2.85;;;;;;;16.32;65.78;96164.78;4926839;28;20176;-80
2023/10/24 06:07:41;;;;;;;3.33;2.88;;;;;;;16.34;66.01;96170.50;4928244;28;20118;-80
2023/10/24 06:10:07;;;;;;;3.95;2.58;;;;;;;16.30;65.81;96165.09;4910514;28;20288;-80
2023/10/24 06:12:33;;;;;;;4.00;2.65;;;;;;;16.26;66.00;96159.69;4920293;28;20203;-80
2023/10/24 06:14:58;;;;;;;3.20;2.97;;;;;;;16.29;65.41;96155.66;4917938;28;20528;-79
2023/10/24 06:17:24;;;;;;;2.95;2.50;;;;;;;16.27;66.10;96161.22;4909606;28;20368;-80
2023/10/24 06:19:49;;;;;;;2.92;2.60;;;;;;;16.29;65.78;96155.66;4911703;28;20219;-80
2023/10/24 06:22:16;;;;;;;3.13;2.40;;;;;;;16.25;65.49;96154.72;4912351;28;20208;-81
2023/10/24 06:24:41;;;;;;;2.60;2.40;;;;;;;16.25;65.94;96155.50;4911309;28;20118;-82
2023/10/24 06:27:09;;;;;;;3.22;1.90;;;;;;;16.23;66.01;96160.28;4912608;28;20623;-82
2023/10/24 06:29:34;;;;;;;3.15;2.50;;;;;;;16.23;65.70;96149.78;4909346;28;20200;-82
2023/10/24 06:32:00;;;;;;;2.95;2.50;;;;;;;16.24;66.06;96159.19;4903744;28;20192;-82
2023/10/24 06:34:25;;;;;;;3.35;2.60;;;;;;;16.22;66.03;96156.09;4893404;28;20635;-82
2023/10/24 06:36:50;;;;;;;2.85;2.38;;;;;;;16.22;65.87;96157.97;4887072;28;20114;-79
2023/10/24 06:39:16;;;;;;;3.75;2.65;;;;;;;16.25;65.85;96157.34;4918658;28;20725;-78
2023/10/24 06:41:41;;;;;;;2.90;2.60;;;;;;;16.21;65.96;96157.19;4900775;28;20177;-81
2023/10/24 06:44:07;;;;;;;3.55;2.83;;;;;;;16.26;65.57;96158.88;4908753;28;20189;-82
2023/10/24 06:46:32;;;;;;;3.08;2.78;;;;;;;16.27;65.74;96160.44;4899863;28;20284;-80
2023/10/24 06:48:57;;;;;;;3.50;2.30;;;;;;;16.24;65.94;96153.19;4928332;28;20231;-80
2023/10/24 06:51:24;;;;;;;3.17;2.65;;;;;;;16.28;65.74;96156.75;4912957;28;20145;-80
2023/10/24 06:53:49;;;;;;;3.90;2.72;;;;;;;16.31;65.70;96152.72;4894607;28;20192;-80
2023/10/24 06:56:14;;;;;;;4.45;2.78;;;;;;;16.25;66.07;96152.88;4928805;28;20215;-80
2023/10/24 06:58:40;;;;;;;2.75;2.55;;;;;;;16.33;66.11;96161.06;4903171;28;20211;-80
2023/10/24 07:01:06;;;;;;;4.60;3.47;;;;;;;16.32;65.70;96155.06;4925390;28;20173;-80
2023/10/24 07:03:56;;;;;;;3.25;2.63;;;;;;;16.26;65.77;96143.91;4923633;28;20341;-80
2023/10/24 07:06:21;;;;;;;3.00;2.30;;;;;;;16.30;65.57;96149.34;4913329;28;20297;-80
2023/10/24 07:08:48;;;;;;;2.40;2.17;;;;;;;16.33;65.31;96153.19;4916480;28;20189;-80
2023/10/24 07:11:14;;;;;;;3.83;2.40;;;;;;;16.37;65.82;96148.88;4909950;28;20325;-80
2023/10/24 07:13:39;;;;;;;3.58;2.80;;;;;;;16.33;65.89;96140.84;4890614;28;20190;-79
2023/10/24 07:16:15;;;;;;;3.15;2.13;;;;;;;16.39;65.87;96150.13;4913039;28;20706;-80
2023/10/24 07:18:41;;;;;;;3.30;2.42;;;;;;;16.35;65.80;96158.91;4911809;28;20203;-80
2023/10/24 07:21:06;;;;;;;2.60;2.40;;;;;;;16.37;65.94;96165.41;4907845;28;20200;-80
2023/10/24 07:23:33;;;;;;;3.50;2.42;;;;;;;16.41;65.74;96165.56;4906952;28;20238;-80
2023/10/24 07:25:58;;;;;;;4.15;2.72;;;;;;;16.38;65.65;96166.97;4911980;28;20614;-79
2023/10/24 07:28:24;;;;;;;3.20;2.65;;;;;;;16.39;66.21;96160.63;4928782;28;20236;-80
2023/10/24 07:30:51;;;;;;;2.40;2.15;;;;;;;16.42;66.15;96167.13;4906502;28;20193;-80
2023/10/24 07:33:18;;;;;;;3.13;2.33;;;;;;;16.40;65.77;96164.81;4915698;28;20680;-80
2023/10/24 07:35:46;;;;;;;1.98;1.77;;;;;;;16.39;65.91;96152.75;4913053;28;20654;-80
2023/10/24 07:38:11;;;;;;;2.42;1.90;;;;;;;16.44;66.16;96170.22;4897643;28;20097;-79
2023/10/24 07:40:38;;;;;;;2.25;2.05;;;;;;;16.42;65.53;96161.88;4913220;28;20164;-81
2023/10/24 07:43:03;;;;;;;2.53;1.92;;;;;;;16.44;66.17;96154.47;4893538;28;20026;-81
2023/10/24 07:45:30;;;;;;;2.47;2.15;;;;;;;16.44;65.54;96154.47;4903818;28;20748;-81
2023/10/24 07:47:55;;;;;;;3.83;2.50;;;;;;;16.47;65.96;96164.34;4921576;28;20231;-80
2023/10/24 07:50:21;;;;;;;3.25;1.98;;;;;;;16.47;65.97;96173.00;4911658;28;20126;-80
2023/10/24 07:52:46;;;;;;;2.80;2.20;;;;;;;16.44;65.83;96167.59;4904201;28;20180;-80
2023/10/24 07:55:12;;;;;;;2.20;2.00;;;;;;;16.45;66.09;96169.91;4903319;28;20741;-79
2023/10/24 07:57:37;;;;;;;2.63;2.42;;;;;;;16.47;65.63;96174.88;4925641;28;20284;-80
2023/10/24 08:00:03;;;;;;;2.92;2.60;;;;;;;16.52;65.96;96177.34;4926730;28;20518;-79
2023/10/24 08:02:29;;;;;;;2.53;2.28;;;;;;;16.55;65.81;96189.84;4911270;28;20193;-79
2023/10/24 08:04:54;;;;;;;3.05;2.75;;;;;;;16.52;65.78;96187.88;4927637;28;20211;-80
2023/10/24 08:07:19;;;;;;;3.97;2.45;;;;;;;16.54;66.04;96190.94;4897485;28;20207;-79
2023/10/24 08:09:45;;;;;;;4.15;2.17;;;;;;;16.58;65.69;96194.50;4916655;28;20239;-80
2023/10/24 08:12:11;;;;;;;3.53;2.35;;;;;;;16.59;65.26;96197.91;4895076;28;20191;-79
2023/10/24 08:14:37;;;;;;;3.40;2.58;;;;;;;16.59;66.20;96203.94;4928055;28;20710;-79
2023/10/24 08:17:03;;;;;;;3.85;2.53;;;;;;;16.63;65.65;96204.88;4909611;28;20298;-79
2023/10/24 08:19:28;;;;;;;3.20;2.75;;;;;;;16.57;65.79;96195.59;4927436;28;20205;-79
2023/10/24 08:21:54;;;;;;;2.88;2.47;;;;;;;16.60;65.85;96200.22;4909403;28;20638;-79
2023/10/24 08:24:21;;;;;;;2.65;2.33;;;;;;;16.61;65.75;96201.00;4891717;28;20228;-79
2023/10/24 08:26:46;;;;;;;2.45;2.08;;;;;;;16.60;65.92;96196.81;4908518;28;20374;-79
2023/10/24 08:29:12;;;;;;;3.97;2.50;;;;;;;16.64;65.78;96195.16;4910473;28;20707;-79
2023/10/24 08:31:37;;;;;;;2.63;2.40;;;;;;;16.67;65.56;96199.78;4876492;28;20356;-79
2023/10/24 08:34:03;;;;;;;2.65;2.45;;;;;;;16.67;66.02;96192.69;4910272;28;20193;-80
2023/10/24 08:36:28;;;;;;;3.20;2.90;;;;;;;16.66;66.04;96187.72;4922599;28;20190;-79
2023/10/24 08:38:54;;;;;;;3.35;2.25;;;;;;;16.64;66.24;96174.88;4927580;28;20645;-79
2023/10/24 08:41:22;;;;;;;2.92;2.65;;;;;;;16.68;66.14;96185.56;4927319;28;20203;-79
2023/10/24 08:43:49;;;;;;;2.60;2.35;;;;;;;16.74;66.36;96179.09;4925274;28;20207;-80
2023/10/24 08:46:14;;;;;;;2.67;2.40;;;;;;;16.78;65.80;96176.59;4898220;28;20230;-79
2023/10/24 08:48:40;;;;;;;3.08;2.78;;;;;;;16.79;66.18;96173.66;4911301;28;20204;-79
2023/10/24 08:51:05;;;;;;;4.43;3.03;;;;;;;16.77;66.04;96162.66;4916665;28;20272;-79
2023/10/24 08:53:30;;;;;;;3.38;2.75;;;;;;;16.82;66.31;96161.75;4909025;28;20187;-79
2023/10/24 08:55:57;;;;;;;3.90;2.92;;;;;;;16.83;66.13;96158.81;4926559;28;20184;-79
2023/10/24 08:58:23;;;;;;;3.63;2.60;;;;;;;16.87;65.73;96160.88;4879430;28;20293;-79
2023/10/24 09:00:49;;;;;;;3.20;2.90;;;;;;;16.95;66.19;96158.22;4923239;28;20278;-80
2023/10/24 09:03:18;;;;;;;4.53;3.28;;;;;;;16.95;65.91;96149.56;4908369;28;20591;-80
2023/10/24 09:05:45;;;;;;;3.50;3.20;;;;;;;17.08;66.48;96166.25;4902957;28;20215;-80
2023/10/24 09:08:12;;;;;;;3.13;2.83;;;;;;;17.10;65.92;96149.09;4891416;28;20212;-80
2023/10/24 09:10:37;;;;;;;3.67;3.15;;;;;;;17.03;66.03;96159.28;4911419;28;20593;-79
2023/10/24 09:13:04;;;;;;;3.67;3.20;;;;;;;17.03;65.70;96146.94;4911220;28;20191;-79
2023/10/24 09:15:33;;;;;;;4.82;2.90;;;;;;;17.04;65.75;96158.22;4907462;28;20204;-79
2023/10/24 09:18:04;;;;;;;3.25;2.90;;;;;;;17.10;66.13;96148.31;4911388;28;20236;-79
2023/10/24 09:20:33;;;;;;;3.25;2.95;;;;;;;17.14;65.77;96143.97;4911591;28;20652;-79
2023/10/24 09:23:03;;;;;;;3.80;3.40;;;;;;;17.17;65.88;96143.34;4926589;28;20259;-80
2023/10/24 09:25:29;;;;;;;4.03;3.08;;;;;;;17.13;65.84;96131.91;4894643;28;20370;-79
2023/10/24 09:28:13;;;;;;;3.25;2.95;;;;;;;17.29;66.15;96138.22;4894191;28;20274;-79
2023/10/24 09:30:39;;;;;;;2.92;2.58;;;;;;;17.16;65.96;96139.19;4926816;28;20198;-79
2023/10/24 09:33:04;;;;;;;3.13;2.60;;;;;;;17.19;66.24;96138.56;4912354;28;20752;-79
2023/10/24 09:35:30;;;;;;;4.18;2.60;;;;;;;17.19;66.02;96141.97;4928208;28;20211;-80
2023/10/24 09:37:55;;;;;;;3.15;2.65;;;;;;;17.20;65.88;96135.63;4910111;28;20224;-79
2023/10/24 09:40:21;;;;;;;2.53;2.30;;;;;;;17.17;65.87;96130.97;4891371;28;20216;-79
2023/10/24 09:42:46;;;;;;;4.85;3.10;;;;;;;17.11;66.22;96131.44;4899442;28;20212;-79
2023/10/24 09:45:13;;;;;;;4.13;2.70;;;;;;;17.24;65.87;96138.41;4905329;28;20354;-79
2023/10/24 09:47:39;;;;;;;5.20;2.58;;;;;;;17.21;66.04;96131.13;4910372;28;20179;-80
2023/10/24 09:50:06;;;;;;;3.05;2.78;;;;;;;17.22;65.93;96120.28;4905368;28;20220;-79
2023/10/24 09:52:31;;;;;;;2.60;2.40;;;;;;;17.17;65.99;96132.81;4902050;28;20630;-79
2023/10/24 09:54:58;;;;;;;2.70;2.35;;;;;;;17.23;66.24;96132.34;4924026;28;20207;-78
2023/10/24 09:57:23;;;;;;;2.38;2.10;;;;;;;17.25;65.98;96133.91;4908504;28;20631;-79
2023/10/24 09:59:56;;;;;;;2.00;1.90;;;;;;;17.23;66.15;96113.94;4878147;28;20286;-79
2023/10/24 10:02:25;;;;;;;2.35;1.67;;;;;;;17.27;65.96;96115.94;4908883;28;20211;-79
2023/10/24 10:04:51;;;;;;;2.13;1.80;;;;;;;17.22;66.29;96122.13;4909437;28;20217;-79
2023/10/24 10:07:33;;;;;;;2.03;1.60;;;;;;;17.33;65.71;96114.69;4889201;28;20305;-80
2023/10/24 10:09:59;;;;;;;2.00;1.75;;;;;;;17.24;65.94;96109.47;4907486;28;20638;-78
2023/10/24 10:12:26;;;;;;;1.45;1.35;;;;;;;17.22;65.54;96112.41;4922357;28;20434;-80
2023/10/24 10:15:18;;;;;;;1.35;1.25;;;;;;;17.44;65.38;96109.88;4882895;28;20633;-78
2023/10/24 10:18:01;;;;;;;1.58;1.48;;;;;;;17.56;65.93;96116.03;4911557;28;20703;-79
2023/10/24 10:20:48;;;;;;;1.67;1.00;;;;;;;17.45;65.84;96103.53;4914154;28;20663;-79
2023/10/24 10:23:20;;;;;;;1.38;1.17;;;;;;;17.41;65.14;96104.16;4913144;28;20231;-79
2023/10/24 10:25:54;;;;;;;1.83;1.05;;;;;;;17.47;65.54;96098.72;4917046;28;20294;-79
2023/10/24 10:28:50;;;;;;;2.08;1.00;;;;;;;17.59;65.79;96104.09;4912681;28;20383;-80
2023/10/24 10:31:25;;;;;;;1.42;1.10;;;;;;;17.43;65.44;96093.31;4925976;28;20338;-79
2023/10/24 10:33:50;;;;;;;1.30;1.20;;;;;;;17.42;65.61;96091.75;4913060;28;20182;-79
2023/10/24 10:36:17;;;;;;;0.95;0.88;;;;;;;17.44;65.61;96094.84;4912694;28;20216;-79
2023/10/24 10:38:47;;;;;;;1.33;1.15;;;;;;;17.42;65.49;96084.63;4930446;28;20403;-79
2023/10/24 10:41:21;;;;;;;1.50;1.40;;;;;;;17.51;65.13;96084.63;4896830;28;20682;-80
2023/10/24 10:43:55;;;;;;;1.15;1.05;;;;;;;17.53;65.51;96079.81;4925828;28;20231;-79
2023/10/24 10:46:23;;;;;;;1.65;1.20;;;;;;;17.37;65.76;96079.53;4912553;28;20201;-80
2023/10/24 10:48:49;;;;;;;0.93;0.88;;;;;;;17.47;65.29;96077.66;4913598;28;20122;-79
2023/10/24 10:51:22;;;;;;;1.13;0.98;;;;;;;17.59;65.26;96077.75;4912187;28;20679;-80
2023/10/24 10:53:54;;;;;;;1.38;1.23;;;;;;;17.65;65.78;96075.72;4893545;28;20642;-79
2023/10/24 10:56:23;;;;;;;0.95;0.95;;;;;;;17.67;65.11;96081.47;4926984;28;20195;-80
2023/10/24 10:59:02;;;;;;;1.35;1.10;;;;;;;17.52;65.08;96088.00;4929439;28;20177;-79
2023/10/24 11:01:33;;;;;;;1.10;1.05;;;;;;;17.68;65.35;96080.34;4924478;28;20101;-79
2023/10/24 11:03:59;;;;;;;0.93;0.90;;;;;;;17.52;65.50;96074.84;4927589;28;20695;-80
2023/10/24 11:06:26;;;;;;;1.02;1.00;;;;;;;17.47;65.36;96069.75;4928519;28;20200;-80
2023/10/24 11:09:09;;;;;;;2.45;1.15;;;;;;;17.72;65.47;96071.50;4910030;28;20215;-80
2023/10/24 11:11:37;;;;;;;2.05;0.98;;;;;;;17.56;65.39;96058.13;4913110;28;20680;-79
2023/10/24 11:14:19;;;;;;;0.80;0.80;;;;;;;17.77;64.82;96071.34;4911214;28;20654;-80
2023/10/24 11:16:48;;;;;;;1.98;1.10;;;;;;;17.76;64.71;96063.75;4929450;28;20274;-79
2023/10/24 11:19:18;;;;;;;1.50;1.40;;;;;;;17.73;65.40;96059.13;4902791;28;20200;-80
2023/10/24 11:21:45;;;;;;;1.38;1.08;;;;;;;17.40;66.07;96062.34;4894027;28;20177;-79
2023/10/24 11:24:14;;;;;;;1.10;1.00;;;;;;;17.26;66.03;96070.47;4911962;28;20219;-78
2023/10/24 11:26:40;;;;;;;1.67;1.58;;;;;;;17.30;65.51;96067.97;4930169;28;20700;-78
2023/10/24 11:29:05;;;;;;;1.17;1.08;;;;;;;17.40;65.54;96073.66;4923071;28;20178;-79
2023/10/24 11:31:31;;;;;;;0.90;0.90;;;;;;;17.43;64.72;96061.72;4919683;28;20357;-79